sensor_id;sensor_type;location;lat;lon;timestamp;pressure;altitude;pressure_sealevel;temperature;humidity
10992;BME280;5549;47.028;15.514;2023-02-18T00:01:21;97021.03;;;11.29;44.30
10992;BME280;5549;47.028;15.514;2023-02-18T00:03:50;97033.69;;;11.35;43.95
10992;BME280;5549;47.028;15.514;2023-02-18T00:06:23;97028.19;;;11.38;43.97
10992;BME280;5549;47.028;15.514;2023-02-18T00:08:51;97012.19;;;11.30;44.85
10992;BME280;5549;47.028;15.514;2023-02-18T00:11:21;97005.00;;;11.32;44.26
10992;BME280;5549;47.028;15.514;2023-02-18T00:13:51;97008.13;;;11.25;44.64
10992;BME280;5549;47.028;15.514;2023-02-18T00:16:25;97019.81;;;11.33;44.35
10992;BME280;5549;47.028;15.514;2023-02-18T00:18:55;97017.19;;;11.33;44.29
10992;BME280;5549;47.028;15.514;2023-02-18T00:21:25;97019.84;;;11.21;44.50
10992;BME280;5549;47.028;15.514;2023-02-18T00:23:53;97027.59;;;11.23;45.05
10992;BME280;5549;47.028;15.514;2023-02-18T00:26:21;97026.78;;;11.22;44.31
10992;BME280;5549;47.028;15.514;2023-02-18T00:28:49;97019.59;;;11.24;44.72
10992;BME280;5549;47.028;15.514;2023-02-18T00:31:24;97011.00;;;11.22;43.98
10992;BME280;5549;47.028;15.514;2023-02-18T00:33:52;97024.50;;;11.29;44.60
10992;BME280;5549;47.028;15.514;2023-02-18T00:36:23;97022.69;;;11.30;44.15
10992;BME280;5549;47.028;15.514;2023-02-18T00:38:54;97024.38;;;11.31;44.33
10992;BME280;5549;47.028;15.514;2023-02-18T00:41:24;97033.22;;;11.30;44.79
10992;BME280;5549;47.028;15.514;2023-02-18T00:43:55;97031.31;;;11.32;44.01
10992;BME280;5549;47.028;15.514;2023-02-18T00:46:27;97037.63;;;11.29;44.23
10992;BME280;5549;47.028;15.514;2023-02-18T00:48:55;97030.84;;;11.15;44.18
10992;BME280;5549;47.028;15.514;2023-02-18T00:51:23;97026.31;;;11.06;45.54
10992;BME280;5549;47.028;15.514;2023-02-18T00:53:51;97022.97;;;11.15;45.11
10992;BME280;5549;47.028;15.514;2023-02-18T00:56:22;97026.78;;;11.11;44.87
10992;BME280;5549;47.028;15.514;2023-02-18T00:58:50;97028.22;;;11.04;45.34
10992;BME280;5549;47.028;15.514;2023-02-18T01:01:18;97031.56;;;11.06;45.26
10992;BME280;5549;47.028;15.514;2023-02-18T01:03:50;97030.97;;;11.03;45.01
10992;BME280;5549;47.028;15.514;2023-02-18T01:06:19;97022.72;;;11.07;45.52
10992;BME280;5549;47.028;15.514;2023-02-18T01:08:50;97020.81;;;11.09;45.42
10992;BME280;5549;47.028;15.514;2023-02-18T01:11:18;97016.28;;;11.11;45.06
10992;BME280;5549;47.028;15.514;2023-02-18T01:13:45;97014.13;;;11.05;45.41
10992;BME280;5549;47.028;15.514;2023-02-18T01:16:14;97014.13;;;11.16;44.90
10992;BME280;5549;47.028;15.514;2023-02-18T01:18:43;97009.47;;;11.09;45.31
10992;BME280;5549;47.028;15.514;2023-02-18T01:21:12;97012.78;;;11.22;44.46
10992;BME280;5549;47.028;15.514;2023-02-18T01:23:40;97006.72;;;11.10;44.93
10992;BME280;5549;47.028;15.514;2023-02-18T01:26:09;97015.06;;;11.15;44.80
10992;BME280;5549;47.028;15.514;2023-02-18T01:28:37;97008.84;;;11.28;45.02
10992;BME280;5549;47.028;15.514;2023-02-18T01:31:11;97016.25;;;11.34;44.76
10992;BME280;5549;47.028;15.514;2023-02-18T01:33:42;97016.09;;;11.46;44.09
10992;BME280;5549;47.028;15.514;2023-02-18T01:36:11;97024.59;;;11.39;44.41
10992;BME280;5549;47.028;15.514;2023-02-18T01:38:39;97020.06;;;11.41;44.04
10992;BME280;5549;47.028;15.514;2023-02-18T01:41:07;97015.28;;;11.35;44.10
10992;BME280;5549;47.028;15.514;2023-02-18T01:43:37;97012.34;;;11.06;44.66
10992;BME280;5549;47.028;15.514;2023-02-18T01:46:17;97009.94;;;11.03;45.22
10992;BME280;5549;47.028;15.514;2023-02-18T01:48:50;97014.00;;;11.18;45.26
10992;BME280;5549;47.028;15.514;2023-02-18T01:51:24;97012.91;;;11.20;45.05
10992;BME280;5549;47.028;15.514;2023-02-18T01:54:03;97008.13;;;11.25;44.40
10992;BME280;5549;47.028;15.514;2023-02-18T01:56:33;97010.75;;;11.25;45.52
10992;BME280;5549;47.028;15.514;2023-02-18T01:59:06;97009.69;;;11.28;44.49
10992;BME280;5549;47.028;15.514;2023-02-18T02:01:35;97003.13;;;11.22;44.52
10992;BME280;5549;47.028;15.514;2023-02-18T02:04:05;97010.06;;;11.12;45.65
10992;BME280;5549;47.028;15.514;2023-02-18T02:06:34;97000.03;;;10.73;46.27
10992;BME280;5549;47.028;15.514;2023-02-18T02:09:06;96997.16;;;10.98;45.30
10992;BME280;5549;47.028;15.514;2023-02-18T02:15:35;96995.97;;;11.13;44.82
10992;BME280;5549;47.028;15.514;2023-02-18T02:22:03;96991.41;;;11.27;44.29
10992;BME280;5549;47.028;15.514;2023-02-18T02:25:07;96981.84;;;11.25;44.83
10992;BME280;5549;47.028;15.514;2023-02-18T02:31:15;96980.50;;;11.31;44.69
10992;BME280;5549;47.028;15.514;2023-02-18T02:34:40;96972.75;;;11.30;44.36
10992;BME280;5549;47.028;15.514;2023-02-18T02:37:15;96979.53;;;11.32;44.82
10992;BME280;5549;47.028;15.514;2023-02-18T02:40:04;96973.47;;;11.32;44.13
10992;BME280;5549;47.028;15.514;2023-02-18T02:42:46;96962.94;;;11.32;44.66
10992;BME280;5549;47.028;15.514;2023-02-18T02:45:23;96967.47;;;11.30;44.42
10992;BME280;5549;47.028;15.514;2023-02-18T02:48:04;96959.59;;;11.30;44.89
10992;BME280;5549;47.028;15.514;2023-02-18T02:50:43;96964.03;;;11.29;44.41
10992;BME280;5549;47.028;15.514;2023-02-18T02:53:16;96965.69;;;11.30;44.14
10992;BME280;5549;47.028;15.514;2023-02-18T02:55:48;96956.00;;;11.31;44.52
10992;BME280;5549;47.028;15.514;2023-02-18T02:58:18;96962.22;;;11.30;44.27
10992;BME280;5549;47.028;15.514;2023-02-18T03:01:08;96950.03;;;11.29;44.28
10992;BME280;5549;47.028;15.514;2023-02-18T03:04:18;96945.28;;;11.22;44.52
10992;BME280;5549;47.028;15.514;2023-02-18T03:07:28;96955.78;;;11.22;44.34
10992;BME280;5549;47.028;15.514;2023-02-18T03:10:23;96954.00;;;11.23;44.64
10992;BME280;5549;47.028;15.514;2023-02-18T03:13:03;96951.00;;;11.28;44.28
10992;BME280;5549;47.028;15.514;2023-02-18T03:15:41;96951.84;;;11.28;43.69
10992;BME280;5549;47.028;15.514;2023-02-18T03:18:33;96953.38;;;11.31;43.95
10992;BME280;5549;47.028;15.514;2023-02-18T03:21:07;96954.25;;;11.20;44.46
10992;BME280;5549;47.028;15.514;2023-02-18T03:23:44;96956.75;;;11.21;44.36
10992;BME280;5549;47.028;15.514;2023-02-18T03:26:15;96951.94;;;11.38;44.21
10992;BME280;5549;47.028;15.514;2023-02-18T03:28:45;96953.72;;;11.37;44.27
10992;BME280;5549;47.028;15.514;2023-02-18T03:31:19;96960.31;;;11.32;43.51
10992;BME280;5549;47.028;15.514;2023-02-18T03:33:55;96953.84;;;11.36;43.88
10992;BME280;5549;47.028;15.514;2023-02-18T03:36:25;96953.34;;;11.42;43.68
10992;BME280;5549;47.028;15.514;2023-02-18T03:39:02;96963.88;;;11.42;43.71
10992;BME280;5549;47.028;15.514;2023-02-18T03:41:33;96962.44;;;11.38;43.64
10992;BME280;5549;47.028;15.514;2023-02-18T03:44:03;96966.53;;;11.31;43.76
10992;BME280;5549;47.028;15.514;2023-02-18T03:46:32;96954.34;;;11.30;43.65
10992;BME280;5549;47.028;15.514;2023-02-18T03:49:00;96962.69;;;11.35;44.15
10992;BME280;5549;47.028;15.514;2023-02-18T03:51:28;96959.09;;;11.36;43.65
10992;BME280;5549;47.028;15.514;2023-02-18T03:53:59;96962.22;;;11.30;44.69
10992;BME280;5549;47.028;15.514;2023-02-18T03:56:27;96961.50;;;11.28;44.25
10992;BME280;5549;47.028;15.514;2023-02-18T03:58:54;96967.72;;;11.27;45.08
10992;BME280;5549;47.028;15.514;2023-02-18T04:01:22;96965.09;;;11.27;44.57
10992;BME280;5549;47.028;15.514;2023-02-18T04:03:49;96970.59;;;11.23;44.53
10992;BME280;5549;47.028;15.514;2023-02-18T04:06:18;96962.25;;;11.18;44.73
10992;BME280;5549;47.028;15.514;2023-02-18T04:08:48;96968.94;;;11.22;44.67
10992;BME280;5549;47.028;15.514;2023-02-18T04:11:19;96972.53;;;11.21;44.32
10992;BME280;5549;47.028;15.514;2023-02-18T04:13:46;96971.44;;;11.24;43.77
10992;BME280;5549;47.028;15.514;2023-02-18T04:16:14;96968.09;;;11.22;44.55
10992;BME280;5549;47.028;15.514;2023-02-18T04:18:42;96963.09;;;11.19;44.89
10992;BME280;5549;47.028;15.514;2023-02-18T04:21:10;96970.84;;;11.20;44.94
10992;BME280;5549;47.028;15.514;2023-02-18T04:23:37;96972.53;;;11.21;44.38
10992;BME280;5549;47.028;15.514;2023-02-18T04:26:05;96968.69;;;11.25;44.74
10992;BME280;5549;47.028;15.514;2023-02-18T04:28:36;96958.28;;;11.24;44.65
10992;BME280;5549;47.028;15.514;2023-02-18T04:31:06;96964.38;;;11.24;44.17
10992;BME280;5549;47.028;15.514;2023-02-18T04:33:33;96964.50;;;11.23;44.73
10992;BME280;5549;47.028;15.514;2023-02-18T04:36:01;96965.34;;;11.23;44.10
10992;BME280;5549;47.028;15.514;2023-02-18T04:38:31;96965.22;;;11.25;44.87
10992;BME280;5549;47.028;15.514;2023-02-18T04:40:58;96960.81;;;11.14;45.19
10992;BME280;5549;47.028;15.514;2023-02-18T04:43:26;96964.75;;;11.20;44.80
10992;BME280;5549;47.028;15.514;2023-02-18T04:45:55;96963.00;;;11.09;44.75
10992;BME280;5549;47.028;15.514;2023-02-18T04:48:22;96966.09;;;11.14;45.30
10992;BME280;5549;47.028;15.514;2023-02-18T04:50:50;96964.66;;;11.10;45.24
10992;BME280;5549;47.028;15.514;2023-02-18T04:53:17;96967.88;;;11.14;44.79
10992;BME280;5549;47.028;15.514;2023-02-18T04:55:49;96960.00;;;11.14;44.91
10992;BME280;5549;47.028;15.514;2023-02-18T04:58:20;96968.59;;;11.16;44.52
10992;BME280;5549;47.028;15.514;2023-02-18T05:00:47;96962.16;;;10.98;45.78
10992;BME280;5549;47.028;15.514;2023-02-18T05:03:19;96959.88;;;11.04;45.42
10992;BME280;5549;47.028;15.514;2023-02-18T05:05:46;96957.97;;;11.06;44.88
10992;BME280;5549;47.028;15.514;2023-02-18T05:08:14;96952.47;;;11.09;45.13
10992;BME280;5549;47.028;15.514;2023-02-18T05:10:44;96952.34;;;11.11;45.43
10992;BME280;5549;47.028;15.514;2023-02-18T05:13:14;96962.75;;;11.12;44.94
10992;BME280;5549;47.028;15.514;2023-02-18T05:15:42;96969.09;;;11.10;45.26
10992;BME280;5549;47.028;15.514;2023-02-18T05:18:10;96963.69;;;11.11;45.18
10992;BME280;5549;47.028;15.514;2023-02-18T05:20:38;96964.41;;;11.13;45.25
10992;BME280;5549;47.028;15.514;2023-02-18T05:23:06;96958.19;;;11.14;44.98
10992;BME280;5549;47.028;15.514;2023-02-18T05:25:33;96959.16;;;11.13;45.04
10992;BME280;5549;47.028;15.514;2023-02-18T05:28:01;96959.41;;;11.10;45.15
10992;BME280;5549;47.028;15.514;2023-02-18T05:30:30;96958.56;;;11.10;45.03
10992;BME280;5549;47.028;15.514;2023-02-18T05:33:00;96969.91;;;11.10;45.42
10992;BME280;5549;47.028;15.514;2023-02-18T05:35:27;96981.50;;;11.08;44.99
10992;BME280;5549;47.028;15.514;2023-02-18T05:37:59;96972.53;;;11.10;44.73
10992;BME280;5549;47.028;15.514;2023-02-18T05:40:29;96975.06;;;11.12;44.72
10992;BME280;5549;47.028;15.514;2023-02-18T05:42:56;96979.94;;;11.16;45.49
10992;BME280;5549;47.028;15.514;2023-02-18T05:45:24;96977.19;;;11.18;45.08
10992;BME280;5549;47.028;15.514;2023-02-18T05:47:51;96984.50;;;11.14;45.03
10992;BME280;5549;47.028;15.514;2023-02-18T05:50:21;96979.94;;;11.16;45.43
10992;BME280;5549;47.028;15.514;2023-02-18T05:52:51;96975.41;;;11.18;45.06
10992;BME280;5549;47.028;15.514;2023-02-18T05:55:22;96989.28;;;11.09;45.93
10992;BME280;5549;47.028;15.514;2023-02-18T05:57:50;96985.44;;;11.13;45.61
10992;BME280;5549;47.028;15.514;2023-02-18T06:00:20;96979.94;;;11.16;45.58
10992;BME280;5549;47.028;15.514;2023-02-18T06:02:48;96981.38;;;11.20;44.72
10992;BME280;5549;47.028;15.514;2023-02-18T06:05:15;96985.31;;;11.26;45.64
10992;BME280;5549;47.028;15.514;2023-02-18T06:07:43;96983.72;;;11.35;45.50
10992;BME280;5549;47.028;15.514;2023-02-18T06:10:10;96989.97;;;11.22;45.96
10992;BME280;5549;47.028;15.514;2023-02-18T06:12:42;96987.09;;;11.25;45.60
10992;BME280;5549;47.028;15.514;2023-02-18T06:15:09;96994.50;;;11.32;45.49
10992;BME280;5549;47.028;15.514;2023-02-18T06:17:37;96994.47;;;11.43;45.00
10992;BME280;5549;47.028;15.514;2023-02-18T06:20:06;96993.13;;;11.48;44.46
10992;BME280;5549;47.028;15.514;2023-02-18T06:22:34;96994.22;;;11.46;45.30
10992;BME280;5549;47.028;15.514;2023-02-18T06:25:01;96990.75;;;11.45;44.75
10992;BME280;5549;47.028;15.514;2023-02-18T06:27:29;96994.00;;;11.38;44.80
10992;BME280;5549;47.028;15.514;2023-02-18T06:29:58;96994.75;;;11.17;46.09
10992;BME280;5549;47.028;15.514;2023-02-18T06:32:25;96997.84;;;11.34;45.73
10992;BME280;5549;47.028;15.514;2023-02-18T06:34:53;97002.00;;;11.36;45.71
10992;BME280;5549;47.028;15.514;2023-02-18T06:37:22;96998.34;;;11.16;45.95
10992;BME280;5549;47.028;15.514;2023-02-18T06:39:50;97000.84;;;11.29;45.64
10992;BME280;5549;47.028;15.514;2023-02-18T06:42:17;97000.34;;;11.24;45.75
10992;BME280;5549;47.028;15.514;2023-02-18T06:44:47;97011.47;;;11.28;45.78
10992;BME280;5549;47.028;15.514;2023-02-18T06:47:18;97012.66;;;11.35;46.08
10992;BME280;5549;47.028;15.514;2023-02-18T06:49:46;97001.66;;;11.30;45.45
10992;BME280;5549;47.028;15.514;2023-02-18T06:52:13;97006.00;;;10.97;46.04
10992;BME280;5549;47.028;15.514;2023-02-18T06:54:43;97001.59;;;10.98;46.63
10992;BME280;5549;47.028;15.514;2023-02-18T06:57:11;96998.78;;;11.33;50.93
10992;BME280;5549;47.028;15.514;2023-02-18T06:59:38;96997.53;;;11.59;52.46
10992;BME280;5549;47.028;15.514;2023-02-18T07:02:06;96996.28;;;11.74;48.47
10992;BME280;5549;47.028;15.514;2023-02-18T07:04:35;96997.03;;;11.97;50.21
10992;BME280;5549;47.028;15.514;2023-02-18T07:07:02;96996.44;;;12.26;48.88
10992;BME280;5549;47.028;15.514;2023-02-18T07:09:32;96995.72;;;12.44;49.05
10992;BME280;5549;47.028;15.514;2023-02-18T07:12:00;96999.97;;;12.57;45.93
10992;BME280;5549;47.028;15.514;2023-02-18T07:14:27;97003.97;;;12.81;46.36
10992;BME280;5549;47.028;15.514;2023-02-18T07:16:55;97005.72;;;13.02;45.70
10992;BME280;5549;47.028;15.514;2023-02-18T07:19:23;97003.59;;;13.16;45.87
10992;BME280;5549;47.028;15.514;2023-02-18T07:21:52;96988.63;;;13.27;45.53
10992;BME280;5549;47.028;15.514;2023-02-18T07:24:24;97008.22;;;13.34;44.07
10992;BME280;5549;47.028;15.514;2023-02-18T07:26:54;97000.34;;;13.53;45.08
10992;BME280;5549;47.028;15.514;2023-02-18T07:29:22;97010.06;;;13.62;44.45
10992;BME280;5549;47.028;15.514;2023-02-18T07:31:49;97004.81;;;13.72;44.44
10992;BME280;5549;47.028;15.514;2023-02-18T07:34:17;97002.31;;;13.80;44.06
10992;BME280;5549;47.028;15.514;2023-02-18T07:36:46;97017.91;;;13.93;44.86
10992;BME280;5549;47.028;15.514;2023-02-18T07:39:15;97005.13;;;13.98;44.42
10992;BME280;5549;47.028;15.514;2023-02-18T07:41:48;97002.59;;;13.87;42.07
10992;BME280;5549;47.028;15.514;2023-02-18T07:44:17;97012.34;;;13.96;44.36
10992;BME280;5549;47.028;15.514;2023-02-18T07:46:47;97024.03;;;14.03;43.82
10992;BME280;5549;47.028;15.514;2023-02-18T07:49:17;97024.31;;;14.19;44.35
10992;BME280;5549;47.028;15.514;2023-02-18T07:51:46;97024.56;;;14.26;43.76
10992;BME280;5549;47.028;15.514;2023-02-18T07:54:16;97017.06;;;14.31;43.85
10992;BME280;5549;47.028;15.514;2023-02-18T07:56:44;97025.94;;;14.39;42.89
10992;BME280;5549;47.028;15.514;2023-02-18T07:59:12;97022.50;;;14.49;43.03
10992;BME280;5549;47.028;15.514;2023-02-18T08:01:42;97034.84;;;14.58;43.08
10992;BME280;5549;47.028;15.514;2023-02-18T08:04:16;97026.06;;;14.67;43.13
10992;BME280;5549;47.028;15.514;2023-02-18T08:06:46;97019.84;;;14.49;42.14
10992;BME280;5549;47.028;15.514;2023-02-18T08:09:17;97026.22;;;14.36;42.22
10992;BME280;5549;47.028;15.514;2023-02-18T08:11:47;97038.75;;;13.96;41.48
10992;BME280;5549;47.028;15.514;2023-02-18T08:14:14;97035.69;;;14.00;41.75
10992;BME280;5549;47.028;15.514;2023-02-18T08:16:42;97039.03;;;13.93;41.35
10992;BME280;5549;47.028;15.514;2023-02-18T08:19:09;97044.59;;;13.90;41.52
10992;BME280;5549;47.028;15.514;2023-02-18T08:21:39;97044.84;;;13.87;42.06
10992;BME280;5549;47.028;15.514;2023-02-18T08:24:07;97048.41;;;13.66;41.90
10992;BME280;5549;47.028;15.514;2023-02-18T08:26:36;97044.91;;;13.46;42.62
10992;BME280;5549;47.028;15.514;2023-02-18T08:29:05;97057.69;;;13.51;42.97
10992;BME280;5549;47.028;15.514;2023-02-18T08:31:33;97049.50;;;13.54;42.55
10992;BME280;5549;47.028;15.514;2023-02-18T08:34:01;97045.56;;;13.39;43.60
10992;BME280;5549;47.028;15.514;2023-02-18T08:36:31;97054.88;;;13.43;44.08
10992;BME280;5549;47.028;15.514;2023-02-18T08:39:00;97039.50;;;13.48;43.10
10992;BME280;5549;47.028;15.514;2023-02-18T08:41:28;97047.22;;;13.30;44.34
10992;BME280;5549;47.028;15.514;2023-02-18T08:43:59;97053.38;;;13.50;43.91
10992;BME280;5549;47.028;15.514;2023-02-18T08:46:27;97050.75;;;13.50;43.16
10992;BME280;5549;47.028;15.514;2023-02-18T08:48:54;97050.22;;;13.66;42.97
10992;BME280;5549;47.028;15.514;2023-02-18T08:51:24;97051.06;;;13.66;42.86
10992;BME280;5549;47.028;15.514;2023-02-18T08:53:51;97047.06;;;13.81;43.26
10992;BME280;5549;47.028;15.514;2023-02-18T08:56:19;97035.41;;;13.94;42.81
10992;BME280;5549;47.028;15.514;2023-02-18T08:58:46;97039.31;;;13.99;42.64
10992;BME280;5549;47.028;15.514;2023-02-18T09:01:18;97042.66;;;14.01;42.57
10992;BME280;5549;47.028;15.514;2023-02-18T09:03:47;97038.63;;;14.07;42.15
10992;BME280;5549;47.028;15.514;2023-02-18T09:06:14;97035.84;;;14.08;41.18
10992;BME280;5549;47.028;15.514;2023-02-18T09:08:42;97041.25;;;14.17;41.63
10992;BME280;5549;47.028;15.514;2023-02-18T09:11:10;97037.22;;;14.22;41.55
10992;BME280;5549;47.028;15.514;2023-02-18T09:13:38;97046.28;;;14.10;41.07
10992;BME280;5549;47.028;15.514;2023-02-18T09:16:09;97032.38;;;14.18;41.03
10992;BME280;5549;47.028;15.514;2023-02-18T09:18:39;97036.53;;;14.20;40.29
10992;BME280;5549;47.028;15.514;2023-02-18T09:21:10;97026.09;;;13.90;41.01
10992;BME280;5549;47.028;15.514;2023-02-18T09:23:39;97033.47;;;13.96;40.27
10992;BME280;5549;47.028;15.514;2023-02-18T09:26:09;97017.91;;;13.93;40.24
10992;BME280;5549;47.028;15.514;2023-02-18T09:28:42;97014.56;;;14.10;39.35
10992;BME280;5549;47.028;15.514;2023-02-18T09:31:13;97020.13;;;14.26;39.41
10992;BME280;5549;47.028;15.514;2023-02-18T09:33:45;97029.28;;;14.32;40.29
10992;BME280;5549;47.028;15.514;2023-02-18T09:36:13;97038.75;;;14.54;40.94
10992;BME280;5549;47.028;15.514;2023-02-18T09:38:43;97033.72;;;14.70;40.02
10992;BME280;5549;47.028;15.514;2023-02-18T09:41:23;97042.91;;;14.66;38.33
10992;BME280;5549;47.028;15.514;2023-02-18T09:43:58;97040.56;;;14.63;38.31
10992;BME280;5549;47.028;15.514;2023-02-18T09:46:31;97035.34;;;14.81;38.50
10992;BME280;5549;47.028;15.514;2023-02-18T09:49:02;97032.28;;;14.85;38.71
10992;BME280;5549;47.028;15.514;2023-02-18T09:51:34;97034.53;;;14.80;38.71
10992;BME280;5549;47.028;15.514;2023-02-18T09:54:02;97030.28;;;14.97;39.13
10992;BME280;5549;47.028;15.514;2023-02-18T09:56:32;97017.44;;;15.39;38.25
10992;BME280;5549;47.028;15.514;2023-02-18T09:59:05;97017.28;;;15.40;37.52
10992;BME280;5549;47.028;15.514;2023-02-18T10:01:39;97007.81;;;15.93;38.04
10992;BME280;5549;47.028;15.514;2023-02-18T10:04:16;97019.16;;;16.21;36.58
10992;BME280;5549;47.028;15.514;2023-02-18T10:06:47;97007.78;;;16.28;36.42
10992;BME280;5549;47.028;15.514;2023-02-18T10:09:19;97005.44;;;16.25;35.99
10992;BME280;5549;47.028;15.514;2023-02-18T10:11:51;97005.06;;;16.38;36.41
10992;BME280;5549;47.028;15.514;2023-02-18T10:14:19;97010.94;;;16.50;35.71
10992;BME280;5549;47.028;15.514;2023-02-18T10:16:50;96988.94;;;16.75;35.07
10992;BME280;5549;47.028;15.514;2023-02-18T10:19:25;96990.06;;;16.73;34.79
10992;BME280;5549;47.028;15.514;2023-02-18T10:21:56;96987.03;;;16.93;35.29
10992;BME280;5549;47.028;15.514;2023-02-18T10:24:29;96988.22;;;17.33;35.52
10992;BME280;5549;47.028;15.514;2023-02-18T10:27:05;96976.06;;;17.64;35.15
10992;BME280;5549;47.028;15.514;2023-02-18T10:29:33;96970.50;;;18.08;36.89
10992;BME280;5549;47.028;15.514;2023-02-18T10:32:06;96959.34;;;18.37;35.53
10992;BME280;5549;47.028;15.514;2023-02-18T10:34:44;96955.69;;;18.63;34.46
10992;BME280;5549;47.028;15.514;2023-02-18T10:37:50;96962.47;;;18.81;33.87
10992;BME280;5549;47.028;15.514;2023-02-18T10:40:25;96954.75;;;19.03;34.20
10992;BME280;5549;47.028;15.514;2023-02-18T10:43:05;96943.69;;;19.30;33.67
10992;BME280;5549;47.028;15.514;2023-02-18T10:45:44;96942.44;;;19.02;32.93
10992;BME280;5549;47.028;15.514;2023-02-18T10:48:33;96944.72;;;19.21;32.29
10992;BME280;5549;47.028;15.514;2023-02-18T10:51:15;96945.28;;;19.39;32.39
10992;BME280;5549;47.028;15.514;2023-02-18T10:53:47;96938.78;;;19.11;32.45
10992;BME280;5549;47.028;15.514;2023-02-18T10:56:33;96932.09;;;19.15;32.49
10992;BME280;5549;47.028;15.514;2023-02-18T10:59:13;96923.94;;;19.47;32.28
10992;BME280;5549;47.028;15.514;2023-02-18T11:01:42;96914.53;;;19.68;32.53
10992;BME280;5549;47.028;15.514;2023-02-18T11:04:16;96921.44;;;19.46;32.02
10992;BME280;5549;47.028;15.514;2023-02-18T11:06:50;96915.69;;;19.65;32.10
10992;BME280;5549;47.028;15.514;2023-02-18T11:09:28;96904.88;;;19.90;31.22
10992;BME280;5549;47.028;15.514;2023-02-18T11:12:02;96895.41;;;19.64;31.46
10992;BME280;5549;47.028;15.514;2023-02-18T11:14:42;96892.84;;;19.71;31.25
10992;BME280;5549;47.028;15.514;2023-02-18T11:17:17;96884.25;;;19.61;31.79
10992;BME280;5549;47.028;15.514;2023-02-18T11:19:52;96882.44;;;19.30;32.31
10992;BME280;5549;47.028;15.514;2023-02-18T11:22:24;96871.66;;;19.46;32.21
10992;BME280;5549;47.028;15.514;2023-02-18T11:24:58;96872.59;;;19.62;32.02
10992;BME280;5549;47.028;15.514;2023-02-18T11:27:37;96856.00;;;19.74;31.76
10992;BME280;5549;47.028;15.514;2023-02-18T11:30:18;96849.31;;;19.78;33.75
10992;BME280;5549;47.028;15.514;2023-02-18T11:32:49;96842.97;;;19.79;33.66
10992;BME280;5549;47.028;15.514;2023-02-18T11:35:26;96843.31;;;19.99;33.35
10992;BME280;5549;47.028;15.514;2023-02-18T11:38:00;96841.00;;;19.96;32.45
10992;BME280;5549;47.028;15.514;2023-02-18T11:40:33;96834.88;;;20.10;33.02
10992;BME280;5549;47.028;15.514;2023-02-18T11:43:05;96814.97;;;20.65;33.33
10992;BME280;5549;47.028;15.514;2023-02-18T11:45:34;96817.16;;;20.91;32.27
10992;BME280;5549;47.028;15.514;2023-02-18T11:48:07;96822.50;;;20.91;31.89
10992;BME280;5549;47.028;15.514;2023-02-18T11:50:43;96815.59;;;20.97;31.73
10992;BME280;5549;47.028;15.514;2023-02-18T11:53:31;96796.44;;;20.78;32.03
10992;BME280;5549;47.028;15.514;2023-02-18T11:56:03;96799.66;;;20.89;31.53
10992;BME280;5549;47.028;15.514;2023-02-18T11:58:40;96793.78;;;20.93;32.39
10992;BME280;5549;47.028;15.514;2023-02-18T12:01:17;96782.94;;;21.16;32.00
10992;BME280;5549;47.028;15.514;2023-02-18T12:03:55;96783.00;;;20.87;31.55
10992;BME280;5549;47.028;15.514;2023-02-18T12:06:30;96769.66;;;20.87;31.99
10992;BME280;5549;47.028;15.514;2023-02-18T12:09:06;96769.13;;;20.62;32.04
10992;BME280;5549;47.028;15.514;2023-02-18T12:11:41;96769.69;;;20.28;32.71
10992;BME280;5549;47.028;15.514;2023-02-18T12:14:17;96771.19;;;20.45;32.20
10992;BME280;5549;47.028;15.514;2023-02-18T12:17:38;96764.91;;;20.38;33.08
10992;BME280;5549;47.028;15.514;2023-02-18T12:20:48;96755.97;;;20.31;32.93
10992;BME280;5549;47.028;15.514;2023-02-18T12:23:30;96747.44;;;20.21;32.88
10992;BME280;5549;47.028;15.514;2023-02-18T12:26:09;96736.28;;;20.32;33.59
10992;BME280;5549;47.028;15.514;2023-02-18T12:28:56;96726.63;;;20.31;33.33
10992;BME280;5549;47.028;15.514;2023-02-18T12:31:55;96718.56;;;20.24;32.70
10992;BME280;5549;47.028;15.514;2023-02-18T12:34:42;96723.25;;;20.07;33.76
10992;BME280;5549;47.028;15.514;2023-02-18T12:37:35;96714.16;;;20.02;33.19
10992;BME280;5549;47.028;15.514;2023-02-18T12:40:51;96701.47;;;19.89;33.17
10992;BME280;5549;47.028;15.514;2023-02-18T12:43:36;96695.84;;;19.84;33.14
10992;BME280;5549;47.028;15.514;2023-02-18T12:46:32;96703.03;;;19.69;33.23
10992;BME280;5549;47.028;15.514;2023-02-18T12:49:25;96689.97;;;19.74;33.37
10992;BME280;5549;47.028;15.514;2023-02-18T12:52:08;96692.75;;;19.95;33.32
10992;BME280;5549;47.028;15.514;2023-02-18T12:57:45;96679.31;;;19.74;33.50
10992;BME280;5549;47.028;15.514;2023-02-18T13:00:58;96681.09;;;19.44;33.93
10992;BME280;5549;47.028;15.514;2023-02-18T13:03:50;96677.19;;;19.69;34.05
10992;BME280;5549;47.028;15.514;2023-02-18T13:06:37;96679.41;;;19.28;33.90
10992;BME280;5549;47.028;15.514;2023-02-18T13:09:17;96676.44;;;19.00;34.20
10992;BME280;5549;47.028;15.514;2023-02-18T13:11:55;96676.97;;;18.96;35.11
10992;BME280;5549;47.028;15.514;2023-02-18T13:14:32;96671.13;;;19.00;34.09
10992;BME280;5549;47.028;15.514;2023-02-18T13:17:08;96657.06;;;18.91;34.18
10992;BME280;5549;47.028;15.514;2023-02-18T13:19:46;96673.59;;;19.02;34.36
10992;BME280;5549;47.028;15.514;2023-02-18T13:22:22;96673.59;;;19.02;35.25
10992;BME280;5549;47.028;15.514;2023-02-18T13:24:54;96665.34;;;18.97;34.01
10992;BME280;5549;47.028;15.514;2023-02-18T13:27:31;96653.50;;;18.76;34.18
10992;BME280;5549;47.028;15.514;2023-02-18T13:30:17;96643.78;;;18.38;35.39
10992;BME280;5549;47.028;15.514;2023-02-18T13:32:59;96647.84;;;18.79;35.13
10992;BME280;5549;47.028;15.514;2023-02-18T13:35:36;96658.41;;;18.87;35.63
10992;BME280;5549;47.028;15.514;2023-02-18T13:38:38;96625.34;;;18.59;34.65
10992;BME280;5549;47.028;15.514;2023-02-18T13:41:13;96621.53;;;18.31;35.37
10992;BME280;5549;47.028;15.514;2023-02-18T13:43:41;96616.22;;;18.31;35.68
10992;BME280;5549;47.028;15.514;2023-02-18T13:46:13;96618.19;;;18.37;35.64